EDT,Max TemperatureF,Mean TemperatureF,Min TemperatureF,Max Dew PointF,MeanDew PointF,Min DewpointF,Max Humidity, Mean Humidity, Min Humidity, Max Sea Level PressureIn, Mean Sea Level PressureIn, Min Sea Level PressureIn, Max VisibilityMiles, Mean VisibilityMiles, Min VisibilityMiles, Max Wind SpeedMPH, Mean Wind SpeedMPH, Max Gust SpeedMPH,PrecipitationIn, CloudCover, Events, WindDirDegrees
2011-10-1,88,85,82,73,71,68,74,65,55,30.18,30.10,29.85,10,10,10,16,8,21,0.00,0,,348
2011-10-2,88,84,79,73,72,68,79,69,59,30.28,30.13,29.89,10,10,10,15,9,24,0.01,2,,17
2011-10-3,88,82,75,76,74,70,91,80,68,30.32,30.09,29.98,10,9,0,32,8,41,0.95,4,Fog-Rain,73
2011-10-4,82,80,78,76,72,69,85,77,69,30.33,30.11,30.00,10,10,10,15,9,21,0.05,5,Rain-Thunderstorm,64
2011-10-5,87,83,78,70,69,66,74,63,51,30.32,30.11,29.96,10,10,10,18,12,25,0.00,2,,64
2011-10-6,86,82,77,72,69,67,79,70,61,30.03,29.99,29.94,10,10,10,17,11,23,0.00,1,,53
2011-10-7,85,81,76,74,72,70,85,75,65,30.02,29.98,29.94,10,10,10,29,10,36,T,1,,62
2011-10-8,83,77,70,75,72,68,94,87,79,29.97,29.92,29.85,10,9,2,26,10,33,0.68,4,Rain-Thunderstorm,55
2011-10-9,85,80,75,75,74,72,94,82,70,29.86,29.81,29.76,10,10,10,18,4,23,T,3,Rain,59
2011-10-10,85,81,76,75,73,72,94,82,69,29.87,29.81,29.78,10,10,10,9,5,14,0.00,2,,209
2011-10-11,85,83,80,75,73,73,79,75,70,29.88,29.84,29.80,10,10,10,9,5,13,0.00,0,,205
2011-10-12,86,82,78,76,74,70,91,76,61,29.90,29.86,29.81,10,10,10,7,2,16,0.00,1,,181
2011-10-13,86,83,80,76,75,73,85,78,70,29.86,29.82,29.77,10,10,10,8,5,10,0.00,2,,179
2011-10-14,85,84,82,75,74,73,79,75,70,29.93,29.87,29.79,10,10,10,15,7,17,T,2,,53
2011-10-15,82,78,74,76,74,71,100,90,79,30.01,29.95,29.89,10,8,2,26,11,32,1.22,6,Rain,75
2011-10-16,83,79,74,76,74,70,100,85,69,29.98,29.92,29.88,10,7,1,24,12,30,2.22,7,Rain,72
2011-10-17,78,76,74,75,74,73,100,93,85,29.94,29.88,29.82,10,6,1,21,12,26,6.91,7,Rain-Thunderstorm,65
2011-10-18,83,79,74,79,76,73,100,90,79,29.84,29.73,29.65,10,9,2,30,15,39,0.86,6,Rain-Thunderstorm,149
2011-10-19,83,79,75,79,75,64,97,83,69,29.94,29.72,29.65,10,7,1,25,14,32,4.00,7,Rain-Thunderstorm,257
2011-10-20,80,76,72,65,61,57,68,58,48,30.08,30.01,29.93,10,10,10,18,10,26,0.00,6,,347
2011-10-21,77,74,71,62,59,56,73,63,53,30.12,30.06,30.03,10,10,10,15,9,23,0.00,3,,34
2011-10-22,77,73,68,66,60,55,90,74,57,30.03,29.98,29.93,10,10,10,15,8,23,0.00,3,,19
2011-10-23,80,75,69,70,67,64,90,79,67,30.00,29.95,29.91,10,10,10,14,8,17,0.00,2,,15
2011-10-24,80,77,74,71,66,63,84,72,60,30.07,30.02,29.96,10,10,10,18,12,25,0.00,2,,7
2011-10-25,82,77,72,69,66,62,84,73,62,30.09,30.04,30.01,10,10,10,18,12,25,0.00,2,,44
2011-10-26,83,79,75,72,70,68,87,78,69,30.03,29.97,29.92,10,10,10,16,9,24,T,5,,58
2011-10-27,83,80,76,76,74,72,91,83,74,29.94,29.89,29.86,10,10,10,16,8,22,0.03,3,Rain,70
2011-10-28,84,80,76,79,76,73,97,91,85,29.91,29.87,29.81,10,10,6,23,10,29,0.17,4,Rain,106
2011-10-29,82,80,77,78,76,74,91,88,85,29.91,29.85,29.80,10,10,10,18,9,23,0.02,5,Rain,221
2011-10-30,82,78,74,76,74,71,94,87,79,29.99,29.93,29.88,10,10,10,16,9,22,0.00,5,,55
2011-10-31,83,79,75,77,75,70,97,88,79,30.01,29.95,29.91,10,10,10,18,10,25,0.02,5,Rain,136